Time;durP1;ratioP1;P1;durP2;ratioP2;P2;SDS_P1;SDS_P2;PMS_P1;PMS_P2;Temp;Humidity;BMP_temperature;BMP_pressure;BME280_temperature;BME280_humidity;BME280_pressure;Samples;Min_cycle;Max_cycle;Signal;HPM_P1;HPM_P2
2023/07/20 00:00:53;;;;;;;16.98;15.82;;;;;;;23.19;53.78;99605.19;4816217;29;97113;-79
2023/07/20 00:03:24;;;;;;;17.27;16.25;;;;;;;23.20;53.97;99610.38;4805996;29;98659;-79
2023/07/20 00:05:51;;;;;;;16.85;15.75;;;;;;;23.15;54.23;99612.66;4809756;29;98402;-79
2023/07/20 00:08:17;;;;;;;17.27;16.00;;;;;;;23.11;54.49;99643.41;4813406;29;97447;-79
2023/07/20 00:10:43;;;;;;;16.45;15.45;;;;;;;23.10;54.58;99635.53;4794353;29;97396;-80
2023/07/20 00:13:09;;;;;;;19.70;17.73;;;;;;;23.08;54.73;99637.50;4800048;29;98833;-79
2023/07/20 00:15:35;;;;;;;17.77;16.35;;;;;;;22.92;55.35;99647.00;4799566;29;98939;-79
2023/07/20 00:18:01;;;;;;;17.90;16.25;;;;;;;22.85;55.27;99663.78;4799390;29;97346;-79
2023/07/20 00:20:26;;;;;;;16.70;15.57;;;;;;;22.86;55.30;99668.97;4789786;29;96721;-79
2023/07/20 00:22:52;;;;;;;17.20;15.85;;;;;;;22.79;55.34;99670.56;4800245;29;98501;-79
2023/07/20 00:25:18;;;;;;;17.85;16.70;;;;;;;22.81;55.65;99664.06;4805587;29;98917;-79
2023/07/20 00:27:44;;;;;;;18.38;16.83;;;;;;;22.81;55.66;99665.91;4795761;29;96828;-79
2023/07/20 00:30:10;;;;;;;17.23;16.02;;;;;;;22.79;55.34;99657.19;4783492;29;97300;-80
2023/07/20 00:32:35;;;;;;;17.77;16.48;;;;;;;22.67;56.12;99658.34;4812777;29;99234;-79
2023/07/20 00:35:01;;;;;;;17.50;16.30;;;;;;;22.57;56.31;99650.34;4792622;29;100025;-79
2023/07/20 00:37:29;;;;;;;17.90;16.50;;;;;;;22.55;56.33;99641.63;4806018;29;96842;-79
2023/07/20 00:39:54;;;;;;;16.92;15.80;;;;;;;22.38;57.13;99625.34;4802560;29;97091;-79
2023/07/20 00:42:20;;;;;;;20.15;16.33;;;;;;;22.35;56.92;99612.28;4802337;29;98799;-79
2023/07/20 00:44:45;;;;;;;17.35;16.05;;;;;;;22.31;57.01;99607.34;4792762;29;98539;-79
2023/07/20 00:47:11;;;;;;;18.05;16.60;;;;;;;22.38;56.81;99608.47;4803112;29;97260;-79
2023/07/20 00:49:37;;;;;;;19.42;17.75;;;;;;;22.38;56.90;99597.78;4804658;29;98020;-79
2023/07/20 00:52:04;;;;;;;17.13;16.02;;;;;;;22.21;57.12;99590.50;4766857;29;100284;-79
2023/07/20 00:54:30;;;;;;;17.55;16.30;;;;;;;22.19;57.34;99595.13;4804739;29;98391;-80
2023/07/20 00:56:55;;;;;;;17.95;16.63;;;;;;;22.24;57.49;99603.56;4806731;29;96758;-80
2023/07/20 00:59:21;;;;;;;17.55;16.35;;;;;;;22.12;57.95;99610.88;4799934;29;97465;-79
2023/07/20 01:01:46;;;;;;;18.00;16.60;;;;;;;22.15;57.97;99615.94;4804710;29;98621;-79
2023/07/20 01:04:13;;;;;;;18.15;16.48;;;;;;;22.20;58.17;99612.88;4807411;29;98604;-79
2023/07/20 01:06:38;;;;;;;18.10;16.65;;;;;;;22.20;58.48;99620.91;4779144;29;96782;-79
2023/07/20 01:09:48;;;;;;;17.27;16.00;;;;;;;22.24;58.17;99649.03;4802341;29;97692;-79
2023/07/20 01:12:24;;;;;;;17.95;16.75;;;;;;;22.23;58.78;99628.63;4753080;29;99176;-79
2023/07/20 01:14:51;;;;;;;18.08;16.50;;;;;;;22.23;58.91;99637.50;4715670;29;101087;-79
2023/07/20 01:17:16;;;;;;;17.05;15.85;;;;;;;22.21;58.68;99628.75;4720567;29;96879;-79
2023/07/20 01:19:43;;;;;;;17.63;16.42;;;;;;;22.07;58.90;99630.00;4745712;29;96884;-79
2023/07/20 01:22:28;;;;;;;18.08;16.58;;;;;;;21.95;58.99;99628.47;4744853;29;97934;-79
2023/07/20 01:25:06;;;;;;;17.67;16.38;;;;;;;21.95;58.65;99630.31;4745006;29;98692;-79
2023/07/20 01:27:52;;;;;;;16.95;15.95;;;;;;;21.96;58.57;99619.47;4745365;29;97205;-79
2023/07/20 01:30:43;;;;;;;17.55;16.42;;;;;;;21.97;58.79;99615.84;4720001;29;97294;-79
2023/07/20 01:33:11;;;;;;;18.10;16.70;;;;;;;21.92;58.79;99615.41;4742535;29;100300;-79
2023/07/20 01:35:38;;;;;;;18.55;17.35;;;;;;;21.82;59.28;99618.09;4727316;29;98230;-79
2023/07/20 01:38:04;;;;;;;18.75;16.92;;;;;;;21.80;58.88;99616.53;4729020;29;97170;-79
2023/07/20 01:40:30;;;;;;;17.98;16.45;;;;;;;21.81;58.88;99615.56;4728660;29;97242;-79
2023/07/20 01:42:56;;;;;;;17.67;16.42;;;;;;;21.81;58.82;99611.03;4770250;29;98623;-79
2023/07/20 01:45:21;;;;;;;17.80;16.70;;;;;;;21.82;58.98;99617.25;4790164;29;98728;-79
2023/07/20 01:47:47;;;;;;;17.63;16.40;;;;;;;21.78;58.70;99615.84;4812855;29;97136;-79
2023/07/20 01:50:12;;;;;;;18.25;16.88;;;;;;;21.65;59.39;99614.28;4801649;29;97036;-79
2023/07/20 01:52:38;;;;;;;17.75;16.35;;;;;;;21.52;59.56;99605.69;4784375;29;100316;-79
2023/07/20 01:55:04;;;;;;;18.00;16.73;;;;;;;21.58;59.22;99610.47;4769619;29;100455;-79
2023/07/20 01:57:31;;;;;;;18.30;17.10;;;;;;;21.63;59.04;99608.25;4801879;29;96922;-79
2023/07/20 01:59:56;;;;;;;18.02;16.90;;;;;;;21.63;59.10;99607.41;4784922;29;97220;-79
2023/07/20 02:02:26;;;;;;;17.95;16.25;;;;;;;21.63;59.26;99612.75;4789372;29;100612;-79
2023/07/20 02:04:51;;;;;;;17.27;16.08;;;;;;;21.59;59.49;99614.84;4784192;29;100761;-79
2023/07/20 02:07:17;;;;;;;17.90;16.67;;;;;;;21.57;59.53;99618.66;4805226;29;96796;-79
2023/07/20 02:09:42;;;;;;;18.45;17.05;;;;;;;21.56;59.39;99611.63;4801979;29;96884;-79
2023/07/20 02:12:08;;;;;;;18.38;16.90;;;;;;;21.51;59.70;99614.69;4788334;29;98843;-79
2023/07/20 02:14:34;;;;;;;18.33;17.00;;;;;;;21.41;60.41;99624.50;4806114;29;97806;-79
2023/07/20 02:17:00;;;;;;;17.85;16.35;;;;;;;21.42;59.89;99619.06;4814822;29;97244;-79
2023/07/20 02:19:29;;;;;;;17.83;16.52;;;;;;;21.42;59.94;99618.22;4816432;29;97153;-79
2023/07/20 02:21:54;;;;;;;18.40;17.15;;;;;;;21.39;59.96;99613.16;4788119;29;100362;-79
2023/07/20 02:24:20;;;;;;;18.67;17.10;;;;;;;21.34;59.69;99620.69;4802256;29;100566;-79
2023/07/20 02:26:46;;;;;;;17.52;16.33;;;;;;;21.32;59.79;99622.66;4802132;29;96868;-79
2023/07/20 02:29:11;;;;;;;18.15;16.65;;;;;;;21.25;60.20;99625.88;4801575;29;97471;-79
2023/07/20 02:31:39;;;;;;;17.65;16.52;;;;;;;21.27;60.05;99622.25;4798741;29;99019;-79
2023/07/20 02:34:08;;;;;;;18.33;17.02;;;;;;;21.18;60.39;99623.91;4787385;29;98861;-79
2023/07/20 02:36:34;;;;;;;18.23;17.02;;;;;;;21.17;60.49;99623.03;4800471;29;96845;-79
2023/07/20 02:39:01;;;;;;;18.73;17.08;;;;;;;21.08;60.73;99631.88;4784781;29;96879;-79
2023/07/20 02:41:27;;;;;;;19.40;18.00;;;;;;;21.05;60.94;99632.13;4783410;29;98945;-79
2023/07/20 02:43:52;;;;;;;19.55;17.58;;;;;;;20.89;61.20;99646.00;4801042;29;98236;-79
2023/07/20 02:46:18;;;;;;;18.00;16.70;;;;;;;20.85;61.25;99635.72;4803141;29;96826;-79
2023/07/20 02:48:43;;;;;;;18.58;17.33;;;;;;;20.91;61.05;99636.00;4801069;29;97230;-79
2023/07/20 02:51:09;;;;;;;19.23;17.60;;;;;;;20.94;60.78;99629.56;4800797;29;99010;-79
2023/07/20 02:53:35;;;;;;;19.42;17.85;;;;;;;20.89;60.63;99629.16;4798195;29;100103;-79
2023/07/20 02:56:00;;;;;;;18.77;17.05;;;;;;;20.94;60.95;99629.56;4800828;29;96860;-79
2023/07/20 02:58:26;;;;;;;18.13;16.88;;;;;;;20.94;60.92;99621.56;4800499;29;96825;-79
2023/07/20 03:00:52;;;;;;;18.90;17.50;;;;;;;20.88;61.01;99624.78;4799891;29;98763;-79
2023/07/20 03:03:18;;;;;;;19.15;17.50;;;;;;;20.93;60.82;99633.22;4799930;29;98505;-79
2023/07/20 03:05:43;;;;;;;19.42;17.83;;;;;;;20.89;60.61;99630.00;4806069;29;96859;-79
2023/07/20 03:08:09;;;;;;;19.40;17.90;;;;;;;20.84;61.01;99628.69;4800262;29;96885;-79
2023/07/20 03:10:40;;;;;;;18.88;17.45;;;;;;;20.86;60.88;99632.94;4800084;29;99246;-80
2023/07/20 03:13:06;;;;;;;18.48;17.08;;;;;;;20.88;60.49;99635.44;4799787;29;98517;-79
2023/07/20 03:15:32;;;;;;;18.48;17.10;;;;;;;20.82;60.55;99636.00;4780854;29;97206;-80
2023/07/20 03:17:58;;;;;;;18.75;17.35;;;;;;;20.88;60.15;99643.44;4804724;29;98605;-79
2023/07/20 03:20:24;;;;;;;18.00;16.80;;;;;;;20.89;60.14;99637.16;4787007;29;100510;-79
2023/07/20 03:22:50;;;;;;;18.60;17.40;;;;;;;20.82;60.27;99646.66;4794177;29;99053;-80
2023/07/20 03:25:15;;;;;;;18.65;17.55;;;;;;;20.78;60.36;99641.59;4807226;29;96626;-79
2023/07/20 03:27:41;;;;;;;18.98;17.33;;;;;;;20.76;60.33;99640.88;4780884;29;97839;-79
2023/07/20 03:30:09;;;;;;;17.88;16.38;;;;;;;20.80;60.21;99641.47;4803529;29;98794;-79
2023/07/20 03:32:35;;;;;;;18.35;16.98;;;;;;;20.77;60.16;99636.41;4801424;29;98424;-79
2023/07/20 03:35:01;;;;;;;18.58;17.08;;;;;;;20.78;60.13;99646.09;4798282;29;97229;-79
2023/07/20 03:37:27;;;;;;;18.65;17.17;;;;;;;20.80;60.11;99650.31;4799806;29;96825;-80
2023/07/20 03:39:54;;;;;;;18.80;16.80;;;;;;;20.78;60.15;99641.59;4783282;29;100798;-80
2023/07/20 03:42:19;;;;;;;18.90;17.38;;;;;;;20.73;59.97;99637.63;4799596;29;98512;-80
2023/07/20 03:44:45;;;;;;;18.48;16.85;;;;;;;20.72;60.06;99635.97;4802181;29;97124;-80
2023/07/20 03:47:10;;;;;;;17.95;16.35;;;;;;;20.75;60.23;99635.69;4800346;29;97196;-79
2023/07/20 03:49:36;;;;;;;17.55;16.40;;;;;;;20.77;60.25;99628.41;4808949;29;99178;-80
2023/07/20 03:52:05;;;;;;;17.85;16.25;;;;;;;20.72;60.30;99628.78;4800318;29;98443;-80
2023/07/20 03:54:30;;;;;;;18.42;17.10;;;;;;;20.74;59.75;99633.97;4784264;29;97702;-80
2023/07/20 03:56:56;;;;;;;17.63;16.48;;;;;;;20.84;59.90;99626.88;4799768;29;97055;-80
2023/07/20 03:59:21;;;;;;;18.38;16.83;;;;;;;20.88;59.99;99622.09;4799813;29;98747;-80
2023/07/20 04:01:47;;;;;;;18.17;16.85;;;;;;;20.94;59.90;99624.22;4798962;29;98142;-79
2023/07/20 04:04:15;;;;;;;17.92;16.65;;;;;;;21.02;59.88;99633.25;4787060;29;96718;-79
2023/07/20 04:06:40;;;;;;;18.55;17.02;;;;;;;21.00;60.18;99639.69;4803351;29;97191;-80
2023/07/20 04:09:06;;;;;;;19.52;17.95;;;;;;;21.10;59.91;99639.75;4802994;29;98785;-79
2023/07/20 04:11:32;;;;;;;20.00;18.42;;;;;;;21.26;59.40;99642.72;4804070;29;98369;-79
2023/07/20 04:13:57;;;;;;;18.40;16.80;;;;;;;21.34;59.50;99642.88;4784797;29;96907;-79
2023/07/20 04:16:23;;;;;;;18.63;16.65;;;;;;;21.44;59.30;99649.13;4805542;29;96937;-79
2023/07/20 04:18:49;;;;;;;18.77;17.65;;;;;;;21.53;59.29;99658.13;4802015;29;98851;-79
2023/07/20 04:21:14;;;;;;;20.55;18.75;;;;;;;21.60;59.46;99648.56;4785607;29;100253;-79
2023/07/20 04:23:40;;;;;;;18.33;16.92;;;;;;;21.63;59.39;99647.47;4803248;29;96795;-79
2023/07/20 04:26:06;;;;;;;19.08;17.73;;;;;;;21.63;59.61;99650.97;4792713;29;96849;-79
2023/07/20 04:28:32;;;;;;;20.10;18.55;;;;;;;21.63;59.92;99644.78;4796968;29;100354;-80
2023/07/20 04:31:11;;;;;;;19.35;17.52;;;;;;;21.68;59.43;99653.22;4787733;29;100222;-79
2023/07/20 04:33:36;;;;;;;20.17;18.17;;;;;;;21.76;59.39;99657.84;4798968;29;96772;-80
2023/07/20 04:36:02;;;;;;;18.55;17.10;;;;;;;21.81;58.88;99658.28;4788944;29;96958;-79
2023/07/20 04:38:34;;;;;;;19.08;17.40;;;;;;;21.79;59.50;99652.25;4789215;29;100793;-79
2023/07/20 04:41:20;;;;;;;19.17;17.73;;;;;;;21.78;59.14;99654.06;4795939;29;97458;-79
2023/07/20 04:43:47;;;;;;;20.13;18.08;;;;;;;21.80;59.66;99657.44;4790370;29;96849;-79
2023/07/20 04:46:18;;;;;;;19.95;18.48;;;;;;;21.77;59.54;99660.41;4787945;29;97890;-79
2023/07/20 04:48:45;;;;;;;17.80;16.42;;;;;;;21.81;59.60;99674.31;4796158;29;100583;-79
2023/07/20 04:51:11;;;;;;;18.65;17.30;;;;;;;21.67;59.80;99670.22;4807778;29;98853;-79
2023/07/20 04:53:37;;;;;;;19.77;17.88;;;;;;;21.71;59.86;99668.97;4784061;29;100060;-79
2023/07/20 04:56:03;;;;;;;19.60;18.20;;;;;;;21.79;59.60;99673.63;4802546;29;96843;-79
2023/07/20 04:58:29;;;;;;;17.73;16.60;;;;;;;21.76;59.76;99674.75;4785084;29;100687;-80
2023/07/20 05:00:55;;;;;;;18.85;17.20;;;;;;;21.81;59.78;99682.31;4798599;29;100040;-80
2023/07/20 05:03:21;;;;;;;19.95;18.45;;;;;;;21.76;59.89;99682.75;4784640;29;97062;-79
2023/07/20 05:05:48;;;;;;;20.42;18.63;;;;;;;21.80;59.93;99680.66;4793064;29;97500;-79
2023/07/20 05:08:13;;;;;;;20.08;18.02;;;;;;;21.89;60.20;99680.66;4784655;29;101048;-80
2023/07/20 05:10:39;;;;;;;18.63;17.13;;;;;;;22.11;59.16;99692.06;4785282;29;99919;-80
2023/07/20 05:13:05;;;;;;;18.95;17.40;;;;;;;21.99;59.57;99699.38;4784947;29;98092;-80
2023/07/20 05:15:33;;;;;;;19.30;17.67;;;;;;;22.11;59.23;99703.59;4784937;29;97022;-80
2023/07/20 05:17:59;;;;;;;19.67;17.98;;;;;;;22.17;59.02;99707.56;4787875;29;100429;-80
2023/07/20 05:20:25;;;;;;;19.75;18.02;;;;;;;22.07;59.10;99712.00;4796569;29;99927;-79
2023/07/20 05:22:50;;;;;;;19.20;17.60;;;;;;;22.09;58.87;99712.72;4801889;29;97647;-80
2023/07/20 05:25:18;;;;;;;19.70;18.08;;;;;;;22.17;58.71;99704.88;4785552;29;97711;-80
2023/07/20 05:27:44;;;;;;;20.05;18.27;;;;;;;22.24;58.99;99710.50;4800680;29;98560;-80
2023/07/20 05:30:10;;;;;;;19.85;18.30;;;;;;;22.23;58.81;99712.34;4802450;29;98615;-80
2023/07/20 05:32:36;;;;;;;19.00;17.27;;;;;;;22.16;59.11;99705.81;4800061;29;96904;-80
2023/07/20 05:35:01;;;;;;;20.63;18.88;;;;;;;22.19;59.13;99721.59;4801927;29;98106;-80
2023/07/20 05:37:27;;;;;;;20.63;18.92;;;;;;;22.23;59.19;99715.00;4802965;29;98993;-80
2023/07/20 05:39:52;;;;;;;20.40;18.70;;;;;;;22.22;59.24;99710.63;4801331;29;98393;-79
2023/07/20 05:42:18;;;;;;;19.60;17.85;;;;;;;22.15;59.16;99712.16;4800712;29;96765;-79
2023/07/20 05:44:43;;;;;;;21.38;18.77;;;;;;;22.28;59.27;99727.94;4807502;29;97079;-79
2023/07/20 05:47:09;;;;;;;21.02;19.10;;;;;;;22.31;59.14;99724.97;4803940;29;98824;-79
2023/07/20 05:49:35;;;;;;;20.35;18.45;;;;;;;22.26;59.13;99720.06;4801743;29;98627;-79
2023/07/20 05:52:01;;;;;;;20.35;18.52;;;;;;;22.24;59.40;99718.50;4810151;29;96869;-79
2023/07/20 05:54:27;;;;;;;20.17;18.25;;;;;;;22.21;59.65;99716.13;4814118;29;96784;-79
2023/07/20 05:56:53;;;;;;;20.95;18.95;;;;;;;22.30;59.29;99715.28;4800498;29;98677;-79
2023/07/20 05:59:19;;;;;;;21.38;19.50;;;;;;;22.36;59.22;99712.03;4801196;29;98263;-79
2023/07/20 06:01:48;;;;;;;21.67;18.77;;;;;;;22.55;58.75;99716.53;4795493;29;97536;-79
2023/07/20 06:04:14;;;;;;;19.90;18.20;;;;;;;23.08;57.54;99717.81;4804617;29;96846;-79
2023/07/20 06:06:40;;;;;;;21.33;17.73;;;;;;;23.63;56.11;99717.81;4805090;29;99354;-79
2023/07/20 06:09:09;;;;;;;22.70;19.45;;;;;;;24.92;53.39;99713.72;4798500;29;98797;-81
2023/07/20 06:11:35;;;;;;;23.25;18.50;;;;;;;24.92;53.46;99724.47;4783861;29;97579;-81
2023/07/20 06:14:01;;;;;;;20.38;18.25;;;;;;;25.31;52.56;99715.97;4797128;29;96886;-81
2023/07/20 06:16:26;;;;;;;21.45;19.02;;;;;;;27.67;47.78;99711.50;4800299;29;98583;-81
2023/07/20 06:18:52;;;;;;;21.48;19.90;;;;;;;29.75;43.02;99701.88;4800331;29;99141;-82
2023/07/20 06:21:17;;;;;;;20.08;18.25;;;;;;;29.82;42.73;99706.53;4800479;29;97364;-81
2023/07/20 06:23:43;;;;;;;19.27;17.88;;;;;;;28.25;45.02;99720.06;4800960;29;96719;-82
2023/07/20 06:26:08;;;;;;;21.77;19.50;;;;;;;27.52;46.66;99724.88;4800852;29;99069;-81
2023/07/20 06:28:34;;;;;;;20.13;18.63;;;;;;;27.24;46.95;99729.03;4799490;29;98506;-82
2023/07/20 06:31:00;;;;;;;21.02;19.23;;;;;;;26.51;48.42;99733.56;4800123;29;97217;-82
2023/07/20 06:33:26;;;;;;;21.55;19.10;;;;;;;26.31;49.30;99733.00;4800770;29;96907;-81
2023/07/20 06:35:52;;;;;;;20.63;18.95;;;;;;;27.84;46.09;99735.69;4801588;29;98730;-82
2023/07/20 06:38:18;;;;;;;21.42;19.35;;;;;;;28.87;44.53;99737.91;4799042;29;98347;-82
2023/07/20 06:40:46;;;;;;;22.00;18.95;;;;;;;29.37;43.36;99743.63;4800652;29;97366;-82
2023/07/20 06:43:12;;;;;;;21.08;19.15;;;;;;;28.08;45.53;99743.63;4799482;29;97249;-82
2023/07/20 06:45:38;;;;;;;20.63;18.80;;;;;;;27.37;46.64;99748.16;4799866;29;99106;-81
2023/07/20 06:48:04;;;;;;;24.27;19.80;;;;;;;26.80;46.71;99751.00;4802410;29;98661;-82
2023/07/20 06:50:29;;;;;;;22.25;20.23;;;;;;;26.45;47.66;99752.19;4789346;29;97604;-81
2023/07/20 06:52:55;;;;;;;20.88;18.70;;;;;;;26.15;48.18;99747.31;4782938;29;97320;-70
2023/07/20 06:55:21;;;;;;;21.02;19.05;;;;;;;26.08;48.85;99740.91;4792976;29;98470;-70
2023/07/20 06:57:46;;;;;;;19.38;17.70;;;;;;;26.81;46.82;99744.59;4795174;29;98395;-70
2023/07/20 07:00:12;;;;;;;20.05;18.30;;;;;;;28.53;43.40;99747.31;4798826;29;97369;-70
2023/07/20 07:02:38;;;;;;;20.42;18.73;;;;;;;30.71;39.56;99735.88;4794960;29;97018;-71
2023/07/20 07:05:04;;;;;;;22.45;17.67;;;;;;;32.26;36.53;99740.81;4799083;29;98698;-71
2023/07/20 07:07:29;;;;;;;18.55;16.85;;;;;;;32.58;35.81;99746.47;4789992;29;98730;-71
2023/07/20 07:09:55;;;;;;;18.90;17.63;;;;;;;31.17;37.88;99749.78;4797617;29;97268;-70
2023/07/20 07:12:21;;;;;;;18.42;17.00;;;;;;;30.53;38.86;99753.47;4798450;29;97080;-70
2023/07/20 07:14:46;;;;;;;18.27;16.92;;;;;;;32.74;35.75;99740.63;4800207;29;99482;-70
2023/07/20 07:17:12;;;;;;;19.48;18.08;;;;;;;33.30;34.42;99747.44;4800857;29;98663;-70
2023/07/20 07:19:38;;;;;;;19.38;17.77;;;;;;;33.62;34.26;99739.41;4799423;29;99601;-70
2023/07/20 07:22:04;;;;;;;18.13;16.73;;;;;;;32.96;34.63;99738.53;4794360;29;97249;-70
2023/07/20 07:24:33;;;;;;;18.33;16.92;;;;;;;32.39;35.12;99729.94;4791139;29;99225;-70
2023/07/20 07:27:00;;;;;;;18.47;17.00;;;;;;;32.01;35.66;99740.56;4787537;29;99307;-70
2023/07/20 07:29:25;;;;;;;19.52;17.63;;;;;;;31.74;35.59;99747.78;4796181;29;97102;-70
2023/07/20 07:31:51;;;;;;;18.73;17.05;;;;;;;33.04;34.00;99756.50;4802294;29;97014;-70
2023/07/20 07:34:17;;;;;;;19.95;17.92;;;;;;;33.33;33.58;99749.72;4805222;29;99231;-70
2023/07/20 07:36:43;;;;;;;19.80;18.25;;;;;;;33.73;32.83;99741.44;4801087;29;98548;-70
2023/07/20 07:39:09;;;;;;;19.15;17.75;;;;;;;33.33;32.88;99755.16;4801812;29;97310;-70
2023/07/20 07:41:35;;;;;;;19.25;17.40;;;;;;;32.49;34.45;99745.84;4801858;29;96971;-69
2023/07/20 07:44:00;;;;;;;19.85;18.30;;;;;;;32.97;33.57;99758.38;4802123;29;98769;-70
2023/07/20 07:46:26;;;;;;;19.83;17.95;;;;;;;32.74;34.29;99737.91;4798911;29;98291;-70
2023/07/20 07:48:51;;;;;;;18.63;16.92;;;;;;;32.58;34.12;99751.91;4799255;29;97132;-70
2023/07/20 07:51:17;;;;;;;18.35;16.80;;;;;;;31.14;36.08;99750.19;4804451;29;97753;-69
2023/07/20 07:53:43;;;;;;;20.80;18.73;;;;;;;30.38;37.51;99756.25;4790003;29;98952;-69
2023/07/20 07:56:09;;;;;;;19.90;18.30;;;;;;;29.82;39.06;99753.38;4795040;29;98904;-69
2023/07/20 07:58:34;;;;;;;18.52;16.90;;;;;;;30.33;38.38;99750.56;4794678;29;97276;-70
2023/07/20 08:01:00;;;;;;;20.63;19.08;;;;;;;30.96;37.43;99752.56;4796485;29;97263;-69
2023/07/20 08:03:26;;;;;;;19.15;17.75;;;;;;;31.88;35.78;99757.59;4791382;29;99068;-70
2023/07/20 08:05:55;;;;;;;19.15;17.65;;;;;;;31.95;35.98;99744.94;4794182;29;99516;-69
2023/07/20 08:08:21;;;;;;;18.45;17.10;;;;;;;33.12;34.16;99756.28;4798160;29;96859;-71
2023/07/20 08:10:47;;;;;;;18.40;16.98;;;;;;;34.16;32.67;99757.97;4811559;29;96964;-70
2023/07/20 08:13:12;;;;;;;19.42;17.77;;;;;;;35.10;31.35;99745.25;4796259;29;98695;-68
2023/07/20 08:15:38;;;;;;;19.17;17.25;;;;;;;35.81;30.08;99748.38;4799142;29;98359;-70
2023/07/20 08:18:04;;;;;;;19.80;18.40;;;;;;;36.69;29.37;99744.16;4795264;29;96872;-70
2023/07/20 08:20:29;;;;;;;19.58;18.10;;;;;;;36.21;28.93;99745.94;4799014;29;97536;-68
2023/07/20 08:22:56;;;;;;;18.73;17.52;;;;;;;34.74;30.73;99747.91;4798241;29;99384;-68
2023/07/20 08:25:21;;;;;;;17.75;16.40;;;;;;;34.52;30.88;99750.16;4799712;29;98562;-70
2023/07/20 08:27:48;;;;;;;18.27;17.08;;;;;;;34.29;31.02;99743.41;4798332;29;96833;-70
2023/07/20 08:30:14;;;;;;;20.38;18.42;;;;;;;32.97;32.73;99756.50;4786821;29;97301;-82
2023/07/20 08:32:40;;;;;;;18.67;17.20;;;;;;;32.02;33.71;99756.63;4792545;29;99049;-82
2023/07/20 08:35:06;;;;;;;18.30;17.15;;;;;;;31.22;35.42;99755.44;4792352;29;98631;-81
2023/07/20 08:37:31;;;;;;;19.30;18.10;;;;;;;30.44;35.82;99758.19;4789147;29;96728;-81
2023/07/20 08:39:57;;;;;;;18.95;17.45;;;;;;;30.13;35.95;99761.16;4805590;29;97680;-82
2023/07/20 08:42:22;;;;;;;18.85;17.17;;;;;;;30.35;36.33;99763.94;4796608;29;98697;-81
2023/07/20 08:44:49;;;;;;;19.98;18.05;;;;;;;31.86;34.33;99758.88;4809097;29;98581;-80
2023/07/20 08:47:16;;;;;;;19.20;17.63;;;;;;;32.84;33.55;99757.34;4793045;29;97453;-82
2023/07/20 08:49:42;;;;;;;18.42;16.92;;;;;;;33.84;32.22;99748.09;4807738;29;97127;-81
2023/07/20 08:52:08;;;;;;;18.10;16.77;;;;;;;33.49;31.64;99759.31;4801142;29;99139;-81
2023/07/20 08:54:35;;;;;;;18.52;17.05;;;;;;;33.84;30.73;99748.09;4802254;29;98536;-82
2023/07/20 08:57:02;;;;;;;17.90;16.60;;;;;;;33.32;31.40;99761.66;4801382;29;97330;-73
2023/07/20 08:59:29;;;;;;;18.00;16.90;;;;;;;33.76;31.33;99755.44;4796215;29;97063;-72
2023/07/20 09:01:56;;;;;;;17.60;16.55;;;;;;;33.29;30.96;99767.53;4796569;29;98604;-72
2023/07/20 09:04:22;;;;;;;17.73;16.58;;;;;;;33.30;31.24;99758.31;4782748;29;98522;-72
2023/07/20 09:06:49;;;;;;;18.95;17.65;;;;;;;33.35;31.03;99766.66;4802011;29;97037;-73
2023/07/20 09:09:15;;;;;;;18.15;16.88;;;;;;;33.24;30.88;99754.56;4803327;29;97080;-72
2023/07/20 09:11:40;;;;;;;19.20;18.00;;;;;;;33.00;30.90;99763.41;4798726;29;98638;-74
2023/07/20 09:14:07;;;;;;;17.75;16.65;;;;;;;32.57;31.11;99766.56;4795080;29;98650;-75
2023/07/20 09:16:47;;;;;;;17.05;16.05;;;;;;;32.11;32.28;99770.84;4804447;29;97277;-74
2023/07/20 09:19:15;;;;;;;16.83;15.63;;;;;;;31.61;35.30;99770.25;4805421;29;96704;-74
2023/07/20 09:21:40;;;;;;;18.67;17.38;;;;;;;31.41;36.12;99772.03;4804609;29;98730;-74
2023/07/20 09:24:06;;;;;;;18.67;17.30;;;;;;;31.02;37.39;99773.44;4801035;29;98402;-74
2023/07/20 09:26:40;;;;;;;18.10;16.77;;;;;;;30.83;36.80;99764.13;4792411;29;98548;-75
2023/07/20 09:29:09;;;;;;;19.38;17.38;;;;;;;31.02;37.24;99763.44;4794457;29;96826;-75
2023/07/20 09:31:34;;;;;;;18.20;17.00;;;;;;;30.97;37.23;99755.06;4802954;29;99060;-74
2023/07/20 09:34:00;;;;;;;18.15;16.88;;;;;;;31.03;37.73;99758.84;4795433;29;98507;-74
2023/07/20 09:36:29;;;;;;;17.67;16.67;;;;;;;30.80;37.71;99754.53;4795060;29;96819;-72
2023/07/20 09:38:54;;;;;;;18.00;16.73;;;;;;;30.78;36.65;99740.34;4792726;29;97086;-72
2023/07/20 09:41:21;;;;;;;17.90;16.50;;;;;;;30.82;36.80;99751.63;4805125;29;99157;-73
2023/07/20 09:43:46;;;;;;;18.10;16.88;;;;;;;30.69;36.76;99749.66;4794724;29;98605;-73
2023/07/20 09:46:12;;;;;;;18.85;17.35;;;;;;;30.89;36.21;99752.50;4802967;29;97634;-72
2023/07/20 09:48:38;;;;;;;18.55;17.15;;;;;;;30.84;35.55;99746.88;4808247;29;96845;-73
2023/07/20 09:51:06;;;;;;;18.42;17.25;;;;;;;30.85;35.32;99743.94;4794068;29;98812;-73
2023/07/20 09:53:32;;;;;;;18.20;16.90;;;;;;;30.97;35.33;99749.66;4791985;29;97682;-73
2023/07/20 09:55:58;;;;;;;17.88;16.35;;;;;;;30.94;34.74;99744.63;4802453;29;97474;-73
2023/07/20 09:58:26;;;;;;;17.33;16.23;;;;;;;30.51;33.72;99757.38;4792953;29;97525;-74
2023/07/20 10:00:52;;;;;;;17.58;15.95;;;;;;;30.60;34.27;99740.84;4801717;29;98712;-74
2023/07/20 10:03:19;;;;;;;18.33;16.65;;;;;;;30.61;34.19;99738.94;4789362;29;98293;-74
2023/07/20 10:05:50;;;;;;;18.30;17.10;;;;;;;30.61;34.40;99737.06;4800772;29;98041;-74
2023/07/20 10:08:17;;;;;;;17.23;15.93;;;;;;;30.41;34.99;99734.19;4774599;29;96902;-74
2023/07/20 10:10:43;;;;;;;16.52;15.55;;;;;;;30.49;34.63;99729.69;4784849;29;98906;-73
2023/07/20 10:13:26;;;;;;;17.58;16.58;;;;;;;30.12;33.81;99729.75;4794893;29;98536;-73
2023/07/20 10:15:55;;;;;;;18.00;16.70;;;;;;;30.26;34.88;99730.75;4798188;29;97324;-73
2023/07/20 10:18:28;;;;;;;17.95;16.75;;;;;;;30.34;34.84;99721.63;4803584;29;98081;-73
2023/07/20 10:20:55;;;;;;;17.40;16.27;;;;;;;30.23;34.65;99718.44;4774993;29;98927;-74
2023/07/20 10:23:21;;;;;;;17.33;15.88;;;;;;;29.93;35.21;99720.41;4791109;29;98776;-73
2023/07/20 10:25:47;;;;;;;17.35;16.25;;;;;;;30.05;35.11;99728.00;4792652;29;98698;-73
2023/07/20 10:28:13;;;;;;;16.98;15.98;;;;;;;30.03;34.14;99719.25;4786131;29;96854;-73
2023/07/20 10:30:39;;;;;;;15.65;14.73;;;;;;;29.80;33.78;99716.72;4799432;29;99183;-73
2023/07/20 10:33:05;;;;;;;16.13;15.23;;;;;;;29.75;34.27;99728.09;4785117;29;98559;-73
2023/07/20 10:35:50;;;;;;;17.15;16.05;;;;;;;29.77;34.24;99715.22;4788131;29;96921;-73
2023/07/20 10:38:16;;;;;;;16.20;15.25;;;;;;;29.68;34.20;99719.09;4800060;29;96832;-72
2023/07/20 10:40:41;;;;;;;16.23;15.23;;;;;;;29.73;34.66;99725.59;4799331;29;98994;-72
2023/07/20 10:43:09;;;;;;;16.83;15.82;;;;;;;29.76;34.54;99718.97;4808854;29;98380;-71
2023/07/20 10:45:49;;;;;;;17.60;16.60;;;;;;;29.82;34.27;99707.38;4794669;29;97047;-71
2023/07/20 10:48:21;;;;;;;17.48;16.27;;;;;;;29.75;34.53;99717.28;4794895;29;97462;-71
2023/07/20 10:51:22;;;;;;;16.45;15.52;;;;;;;29.85;34.08;99701.59;4799236;29;98757;-72
2023/07/20 10:53:52;;;;;;;;;;;;;;;29.89;34.56;99707.44;4797407;29;98801;-71
2023/07/20 10:56:22;;;;;;;17.45;16.15;;;;;;;29.58;34.88;99707.69;4798014;29;98430;-71
2023/07/20 10:58:48;;;;;;;16.80;15.80;;;;;;;29.56;34.62;99702.50;4801927;29;96876;-72
2023/07/20 11:01:16;;;;;;;17.63;16.63;;;;;;;29.31;34.58;99708.19;4797563;29;98740;-72
2023/07/20 11:03:41;;;;;;;16.33;15.32;;;;;;;29.28;34.48;99708.56;4797287;29;98410;-70
2023/07/20 11:06:38;;;;;;;17.65;16.50;;;;;;;29.25;35.12;99713.53;4794151;29;96858;-70
2023/07/20 11:09:15;;;;;;;18.00;16.70;;;;;;;29.17;34.92;99717.16;4795896;29;97333;-70
2023/07/20 11:11:46;;;;;;;17.73;16.45;;;;;;;29.20;34.87;99710.53;4800516;29;98641;-70
2023/07/20 11:14:25;;;;;;;17.50;16.45;;;;;;;29.14;34.53;99697.78;4806752;29;97383;-70
2023/07/20 11:16:51;;;;;;;18.48;17.38;;;;;;;29.16;35.04;99695.75;4796677;29;96954;-70